createdAt,value
2023-03-31T00:00:45.277Z,47.86
2023-03-31T00:01:45.270Z,44.63
2023-03-31T00:02:45.286Z,45.60
2023-03-31T00:03:45.427Z,47.21
2023-03-31T00:04:45.267Z,46.57
2023-03-31T00:05:45.214Z,48.82
2023-03-31T00:06:45.211Z,47.21
2023-03-31T00:07:45.191Z,45.28
2023-03-31T00:08:45.183Z,42.70
2023-03-31T00:09:45.174Z,45.60
2023-03-31T00:10:45.165Z,46.57
2023-03-31T00:11:45.165Z,48.66
2023-03-31T00:12:45.137Z,48.50
2023-03-31T00:13:45.125Z,48.82
2023-03-31T00:14:45.114Z,46.57
2023-03-31T00:15:45.108Z,48.66
2023-03-31T00:16:45.138Z,47.70
2023-03-31T00:17:45.141Z,47.21
2023-03-31T00:18:45.073Z,46.41
2023-03-31T00:19:45.065Z,46.57
2023-03-31T00:20:45.047Z,47.21
2023-03-31T00:21:45.064Z,46.25
2023-03-31T00:22:45.032Z,47.21
2023-03-31T00:23:45.018Z,46.41
2023-03-31T00:24:45.009Z,61.55
2023-03-31T00:25:45.001Z,48.50
2023-03-31T00:26:44.995Z,45.76
2023-03-31T00:27:44.984Z,47.05
2023-03-31T00:28:44.970Z,47.21
2023-03-31T00:29:44.963Z,48.02
2023-03-31T00:30:44.944Z,45.44
2023-03-31T00:31:45.055Z,46.41
2023-03-31T00:32:44.952Z,47.53
2023-03-31T00:33:44.912Z,44.63
2023-03-31T00:34:44.900Z,46.08
2023-03-31T00:35:44.923Z,43.83
2023-03-31T00:36:44.904Z,45.92
2023-03-31T00:37:44.872Z,45.76
2023-03-31T00:38:44.866Z,46.08
2023-03-31T00:39:44.856Z,46.41
2023-03-31T00:40:44.840Z,50.43
2023-03-31T00:41:44.826Z,50.43
2023-03-31T00:42:44.827Z,45.92
2023-03-31T00:43:44.804Z,47.53
2023-03-31T00:44:44.791Z,43.51
2023-03-31T00:45:44.804Z,47.86
2023-03-31T00:46:44.768Z,47.05
2023-03-31T00:47:44.822Z,44.31
2023-03-31T00:48:44.745Z,44.63
2023-03-31T00:49:44.739Z,46.41
2023-03-31T00:50:44.721Z,45.28
2023-03-31T00:51:44.720Z,44.63
2023-03-31T00:52:44.711Z,45.28
2023-03-31T00:53:44.697Z,47.86
2023-03-31T00:54:44.682Z,49.63
2023-03-31T00:55:44.672Z,49.15
2023-03-31T00:56:44.697Z,46.73
2023-03-31T00:57:44.668Z,50.76
2023-03-31T00:58:44.653Z,48.98
2023-03-31T00:59:44.662Z,48.66
2023-03-31T01:00:44.627Z,47.37
2023-03-31T01:01:44.701Z,45.92
2023-03-31T01:02:44.665Z,47.05
2023-03-31T01:03:44.672Z,48.50
2023-03-31T01:04:44.578Z,48.66
2023-03-31T01:05:44.567Z,46.89
2023-03-31T01:06:44.554Z,47.21
2023-03-31T01:07:44.563Z,48.98
2023-03-31T01:08:44.546Z,50.76
2023-03-31T01:09:44.530Z,60.75
2023-03-31T01:10:44.522Z,48.50
2023-03-31T01:11:44.510Z,48.18
2023-03-31T01:12:44.504Z,48.66
2023-03-31T01:13:44.490Z,49.15
2023-03-31T01:14:44.472Z,47.86
2023-03-31T01:15:44.472Z,47.37
2023-03-31T01:16:44.532Z,49.47
2023-03-31T01:17:44.635Z,48.34
2023-03-31T01:18:44.501Z,56.88
2023-03-31T01:19:44.420Z,62.20
2023-03-31T01:20:44.413Z,45.92
2023-03-31T01:21:44.402Z,46.25
2023-03-31T01:22:44.405Z,45.44
2023-03-31T01:23:44.389Z,46.57
2023-03-31T01:24:44.370Z,45.12
2023-03-31T01:25:44.359Z,46.08
2023-03-31T01:26:44.345Z,49.79
2023-03-31T01:27:44.344Z,47.21
2023-03-31T01:28:44.337Z,47.21
2023-03-31T01:29:44.318Z,49.95
2023-03-31T01:30:44.316Z,47.05
2023-03-31T01:31:44.334Z,60.42
2023-03-31T01:32:44.369Z,47.86
2023-03-31T01:33:44.268Z,47.37
2023-03-31T01:34:44.263Z,45.44
2023-03-31T01:35:44.287Z,46.08
2023-03-31T01:36:44.241Z,46.73
2023-03-31T01:37:44.238Z,48.18
2023-03-31T01:38:44.221Z,48.82
2023-03-31T01:39:44.207Z,45.76
2023-03-31T01:40:44.198Z,48.18
2023-03-31T01:41:44.186Z,59.30
2023-03-31T01:42:44.211Z,49.79
2023-03-31T01:43:44.166Z,49.95
2023-03-31T01:44:45.273Z,45.92
2023-03-31T01:45:45.264Z,50.11
2023-03-31T01:46:45.299Z,48.66
2023-03-31T01:47:45.317Z,45.44
2023-03-31T01:48:45.257Z,46.41
2023-03-31T01:49:45.227Z,47.53
2023-03-31T01:50:45.236Z,47.21
2023-03-31T01:51:45.237Z,45.44
2023-03-31T01:52:45.205Z,60.91
2023-03-31T01:53:45.185Z,49.79
2023-03-31T01:54:45.186Z,48.66
2023-03-31T01:55:45.171Z,47.37
2023-03-31T01:56:45.181Z,47.37
2023-03-31T01:57:45.158Z,48.34
2023-03-31T01:58:45.141Z,55.27
2023-03-31T01:59:45.123Z,59.14
2023-03-31T02:00:46.117Z,51.72
2023-03-31T02:01:45.149Z,48.98
2023-03-31T02:02:45.170Z,47.37
2023-03-31T02:03:45.154Z,46.89
2023-03-31T02:04:45.089Z,46.08
2023-03-31T02:05:45.070Z,46.73
2023-03-31T02:06:45.068Z,47.21
2023-03-31T02:07:45.063Z,44.47
2023-03-31T02:08:45.033Z,46.41
2023-03-31T02:09:45.019Z,44.63
2023-03-31T02:10:45.012Z,43.99
2023-03-31T02:11:45.003Z,48.50
2023-03-31T02:12:44.995Z,47.21
2023-03-31T02:13:44.991Z,50.43
2023-03-31T02:14:44.973Z,50.92
2023-03-31T02:15:44.971Z,55.59
2023-03-31T02:16:44.991Z,55.11
2023-03-31T02:17:44.965Z,52.69
2023-03-31T02:18:44.941Z,51.56
2023-03-31T02:19:44.927Z,52.21
2023-03-31T02:20:44.915Z,52.37
2023-03-31T02:21:44.902Z,50.27
2023-03-31T02:22:44.892Z,46.73
2023-03-31T02:23:44.890Z,48.18
2023-03-31T02:24:44.868Z,49.47
2023-03-31T02:25:44.858Z,49.47
2023-03-31T02:26:44.848Z,49.47
2023-03-31T02:27:44.834Z,49.79
2023-03-31T02:28:44.838Z,50.92
2023-03-31T02:29:44.818Z,51.24
2023-03-31T02:30:44.810Z,47.53
2023-03-31T02:31:44.843Z,48.50
2023-03-31T02:32:44.843Z,48.50
2023-03-31T02:33:44.790Z,46.89
2023-03-31T02:34:44.786Z,47.86
2023-03-31T02:35:44.794Z,48.66
2023-03-31T02:36:44.746Z,47.37
2023-03-31T02:37:44.737Z,51.40
2023-03-31T02:38:44.773Z,48.82
2023-03-31T02:39:44.719Z,60.26
2023-03-31T02:40:44.712Z,53.01
2023-03-31T02:41:44.697Z,52.69
2023-03-31T02:42:44.690Z,53.01
2023-03-31T02:43:44.687Z,57.20
2023-03-31T02:44:44.669Z,60.91
2023-03-31T02:45:44.669Z,59.14
2023-03-31T02:46:44.657Z,53.50
2023-03-31T02:47:44.710Z,54.95
2023-03-31T02:48:44.647Z,55.11
2023-03-31T02:49:44.619Z,60.91
2023-03-31T02:50:44.612Z,60.42
2023-03-31T02:51:44.609Z,53.33
2023-03-31T02:52:44.589Z,52.53
2023-03-31T02:53:44.595Z,49.95
2023-03-31T02:54:44.580Z,60.59
2023-03-31T02:55:44.561Z,54.14
2023-03-31T02:56:44.604Z,54.62
2023-03-31T02:57:44.546Z,48.98
2023-03-31T02:58:44.547Z,52.85
2023-03-31T02:59:44.531Z,52.05
2023-03-31T03:00:44.516Z,63.49
2023-03-31T03:01:44.584Z,64.29
2023-03-31T03:02:44.594Z,65.74
2023-03-31T03:03:44.500Z,74.60
2023-03-31T03:04:44.473Z,74.93
2023-03-31T03:05:44.470Z,64.13
2023-03-31T03:06:44.456Z,65.10
2023-03-31T03:07:44.441Z,64.13
2023-03-31T03:08:44.458Z,62.36
2023-03-31T03:09:44.431Z,52.69
2023-03-31T03:10:44.420Z,51.08
2023-03-31T03:11:44.406Z,53.17
2023-03-31T03:12:44.391Z,59.78
2023-03-31T03:13:44.385Z,63.65
2023-03-31T03:14:44.391Z,60.75
2023-03-31T03:15:44.365Z,50.92
2023-03-31T03:16:44.393Z,61.71
2023-03-31T03:17:44.399Z,50.92
2023-03-31T03:18:44.350Z,66.87
2023-03-31T03:19:44.333Z,62.84
2023-03-31T03:20:44.320Z,55.11
2023-03-31T03:21:44.307Z,58.81
2023-03-31T03:22:44.304Z,59.94
2023-03-31T03:23:44.288Z,62.20
2023-03-31T03:24:44.289Z,61.07
2023-03-31T03:25:44.270Z,58.01
2023-03-31T03:26:44.264Z,61.23
2023-03-31T03:27:44.248Z,63.16
2023-03-31T03:28:44.241Z,59.78
2023-03-31T03:29:44.237Z,60.26
2023-03-31T03:30:44.288Z,51.56
2023-03-31T03:31:44.204Z,60.59
2023-03-31T03:32:44.280Z,60.10
2023-03-31T03:33:44.197Z,51.08
2023-03-31T03:34:44.188Z,61.71
2023-03-31T03:35:44.264Z,63.97
2023-03-31T03:36:45.164Z,51.08
2023-03-31T03:37:44.145Z,63.16
2023-03-31T03:38:44.142Z,61.07
2023-03-31T03:39:44.139Z,50.76
2023-03-31T03:40:44.125Z,61.23
2023-03-31T03:41:44.106Z,58.81
2023-03-31T03:42:44.095Z,49.95
2023-03-31T03:43:44.104Z,64.45
2023-03-31T03:44:44.095Z,49.47
2023-03-31T03:45:44.062Z,49.15
2023-03-31T03:46:44.126Z,61.55
2023-03-31T03:47:44.074Z,59.94
2023-03-31T03:48:44.038Z,49.47
2023-03-31T03:49:44.052Z,60.26
2023-03-31T03:50:44.011Z,56.72
2023-03-31T03:51:44.009Z,50.27
2023-03-31T03:52:44.002Z,50.43
2023-03-31T03:53:43.980Z,62.52
2023-03-31T03:54:43.988Z,60.91
2023-03-31T03:55:43.964Z,51.24
2023-03-31T03:56:43.981Z,59.46
2023-03-31T03:57:44.939Z,50.11
2023-03-31T03:58:43.931Z,50.27
2023-03-31T03:59:43.957Z,63.16
2023-03-31T04:00:43.908Z,62.04
2023-03-31T04:01:43.935Z,53.33
2023-03-31T04:02:44.026Z,64.94
2023-03-31T04:03:43.885Z,57.36
2023-03-31T04:04:43.908Z,61.87
2023-03-31T04:05:43.860Z,65.90
2023-03-31T04:06:43.848Z,63.81
2023-03-31T04:07:43.836Z,62.36
2023-03-31T04:08:43.834Z,65.42
2023-03-31T04:09:43.831Z,62.36
2023-03-31T04:10:43.815Z,53.17
2023-03-31T04:11:43.804Z,60.59
2023-03-31T04:12:43.789Z,60.26
2023-03-31T04:13:43.774Z,58.97
2023-03-31T04:14:43.793Z,61.07
2023-03-31T04:15:43.758Z,53.50
2023-03-31T04:16:43.794Z,54.30
2023-03-31T04:17:43.795Z,61.07
2023-03-31T04:18:43.731Z,63.00
2023-03-31T04:19:43.729Z,60.42
2023-03-31T04:20:43.705Z,60.26
2023-03-31T04:21:43.699Z,61.23
2023-03-31T04:22:43.685Z,62.04
2023-03-31T04:23:43.677Z,54.46
2023-03-31T04:24:43.736Z,60.10
2023-03-31T04:25:43.661Z,64.78
2023-03-31T04:26:43.698Z,54.30
2023-03-31T04:27:43.648Z,60.91
2023-03-31T04:28:43.632Z,50.60
2023-03-31T04:29:43.615Z,61.23
2023-03-31T04:30:43.616Z,53.17
2023-03-31T04:31:43.661Z,53.33
2023-03-31T04:32:43.618Z,61.71
2023-03-31T04:33:43.572Z,67.51
2023-03-31T04:34:43.564Z,66.23
2023-03-31T04:35:43.564Z,67.35
2023-03-31T04:36:43.540Z,61.39
2023-03-31T04:37:43.530Z,62.36
2023-03-31T04:38:43.530Z,68.80
2023-03-31T04:39:43.502Z,64.29
2023-03-31T04:40:44.516Z,54.30
2023-03-31T04:41:43.505Z,62.04
2023-03-31T04:42:43.485Z,60.10
2023-03-31T04:43:43.498Z,56.72
2023-03-31T04:44:43.459Z,63.65
2023-03-31T04:45:43.484Z,68.00
2023-03-31T04:46:43.440Z,63.49
2023-03-31T04:47:43.486Z,61.39
2023-03-31T04:48:43.441Z,60.26
2023-03-31T04:49:43.413Z,60.42
2023-03-31T04:50:43.409Z,61.87
2023-03-31T04:51:43.392Z,66.55
2023-03-31T04:52:43.383Z,58.49
2023-03-31T04:53:43.394Z,60.26
2023-03-31T04:54:43.381Z,65.42
2023-03-31T04:55:43.856Z,63.33
2023-03-31T04:56:43.401Z,64.61
2023-03-31T04:57:43.334Z,58.17
2023-03-31T04:58:43.326Z,67.19
2023-03-31T04:59:43.350Z,63.49
2023-03-31T05:00:43.318Z,64.61
2023-03-31T05:01:43.420Z,58.65
2023-03-31T05:02:43.416Z,62.20
2023-03-31T05:03:43.285Z,61.07
2023-03-31T05:04:43.250Z,61.71
2023-03-31T05:05:44.271Z,66.87
2023-03-31T05:06:43.248Z,61.39
2023-03-31T05:07:43.325Z,63.16
2023-03-31T05:08:43.231Z,62.36
2023-03-31T05:09:43.224Z,53.98
2023-03-31T05:10:43.259Z,54.46
2023-03-31T05:11:43.198Z,52.85
2023-03-31T05:12:43.185Z,62.36
2023-03-31T05:13:43.187Z,64.29
2023-03-31T05:14:43.166Z,64.13
2023-03-31T05:15:43.165Z,65.42
2023-03-31T05:16:43.213Z,61.55
2023-03-31T05:17:43.154Z,63.97
2023-03-31T05:18:43.127Z,65.58
2023-03-31T05:19:43.122Z,65.58
2023-03-31T05:20:43.129Z,65.90
2023-03-31T05:21:43.104Z,65.10
2023-03-31T05:22:44.076Z,65.74
2023-03-31T05:23:44.087Z,62.68
2023-03-31T05:24:43.074Z,57.69
2023-03-31T05:25:43.083Z,65.74
2023-03-31T05:26:43.048Z,62.36
2023-03-31T05:27:43.043Z,62.04
2023-03-31T05:28:43.041Z,65.58
2023-03-31T05:29:43.017Z,63.33
2023-03-31T05:30:43.027Z,61.39
2023-03-31T05:31:43.072Z,67.19
2023-03-31T05:32:43.006Z,62.84
2023-03-31T05:33:42.980Z,66.06
2023-03-31T05:34:42.974Z,64.45
2023-03-31T05:35:42.984Z,62.20
2023-03-31T05:36:42.947Z,68.96
2023-03-31T05:37:42.936Z,64.29
2023-03-31T05:38:42.930Z,77.67
2023-03-31T05:39:42.944Z,65.10
2023-03-31T05:40:42.914Z,63.33
2023-03-31T05:41:42.899Z,66.55
2023-03-31T05:42:42.899Z,62.04
2023-03-31T05:43:42.886Z,70.74
2023-03-31T05:44:42.874Z,68.64
2023-03-31T05:45:42.869Z,65.90
2023-03-31T05:46:42.900Z,55.59
2023-03-31T05:47:42.904Z,65.90
2023-03-31T05:48:42.827Z,60.59
2023-03-31T05:49:42.817Z,67.03
2023-03-31T05:50:42.819Z,59.30
2023-03-31T05:51:42.794Z,67.68
2023-03-31T05:52:42.793Z,68.16
2023-03-31T05:53:42.784Z,65.42
2023-03-31T05:54:42.761Z,61.55
2023-03-31T05:55:42.768Z,67.35
2023-03-31T05:56:42.900Z,62.36
2023-03-31T05:57:42.738Z,66.06
2023-03-31T05:58:42.732Z,68.32
2023-03-31T05:59:42.727Z,61.23
2023-03-31T06:00:42.704Z,65.58
2023-03-31T06:01:43.744Z,64.78
2023-03-31T06:02:42.771Z,60.26
2023-03-31T06:03:42.787Z,62.52
2023-03-31T06:04:42.761Z,67.68
2023-03-31T06:05:45.090Z,60.26
2023-03-31T06:06:42.642Z,60.91
2023-03-31T06:07:42.628Z,65.42
2023-03-31T06:08:42.617Z,64.29
2023-03-31T06:09:42.616Z,61.39
2023-03-31T06:10:42.598Z,61.55
2023-03-31T06:11:42.596Z,65.58
2023-03-31T06:12:42.586Z,62.68
2023-03-31T06:13:42.564Z,67.84
2023-03-31T06:14:42.564Z,63.49
2023-03-31T06:15:42.594Z,62.68
2023-03-31T06:16:42.543Z,61.23
2023-03-31T06:17:42.553Z,63.65
2023-03-31T06:18:42.518Z,67.35
2023-03-31T06:19:42.521Z,65.10
2023-03-31T06:20:42.503Z,64.13
2023-03-31T06:21:42.529Z,64.94
2023-03-31T06:22:42.482Z,64.29
2023-03-31T06:23:42.467Z,63.00
2023-03-31T06:24:42.454Z,62.68
2023-03-31T06:25:50.916Z,58.49
2023-03-31T06:26:44.461Z,68.32
2023-03-31T06:27:42.422Z,68.16
2023-03-31T06:28:42.411Z,65.26
2023-03-31T06:29:42.400Z,59.78
2023-03-31T06:30:42.393Z,64.29
2023-03-31T06:31:42.405Z,59.46
2023-03-31T06:32:42.411Z,64.45
2023-03-31T06:33:42.372Z,60.42
2023-03-31T06:34:42.350Z,64.45
2023-03-31T06:35:42.369Z,62.52
2023-03-31T06:36:42.357Z,68.64
2023-03-31T06:37:42.317Z,65.58
2023-03-31T06:38:42.313Z,61.71
2023-03-31T06:39:42.307Z,60.59
2023-03-31T06:40:42.291Z,61.23
2023-03-31T06:41:42.289Z,64.61
2023-03-31T06:42:42.257Z,59.78
2023-03-31T06:43:43.270Z,61.39
2023-03-31T06:44:42.243Z,64.13
2023-03-31T06:45:42.243Z,65.10
2023-03-31T06:46:44.171Z,64.13
2023-03-31T06:47:42.268Z,65.26
2023-03-31T06:48:42.252Z,63.49
2023-03-31T06:49:42.206Z,65.26
2023-03-31T06:50:42.191Z,62.20
2023-03-31T06:51:42.204Z,66.23
2023-03-31T06:52:42.210Z,69.45
2023-03-31T06:53:42.255Z,67.68
2023-03-31T06:54:42.159Z,63.97
2023-03-31T06:55:42.150Z,66.06
2023-03-31T06:56:44.764Z,67.84
2023-03-31T06:57:42.752Z,63.81
2023-03-31T06:58:42.147Z,68.00
2023-03-31T06:59:43.054Z,61.55
2023-03-31T07:00:42.113Z,64.29
2023-03-31T07:01:42.152Z,63.65
2023-03-31T07:02:42.180Z,67.68
2023-03-31T07:03:42.143Z,69.61
2023-03-31T07:04:42.084Z,65.90
2023-03-31T07:05:42.054Z,62.84
2023-03-31T07:06:42.032Z,62.68
2023-03-31T07:07:43.271Z,67.03
2023-03-31T07:08:42.005Z,65.10
2023-03-31T07:09:41.988Z,64.94
2023-03-31T07:10:44.299Z,64.94
2023-03-31T07:11:42.028Z,65.10
2023-03-31T07:12:42.014Z,69.13
2023-03-31T07:13:41.997Z,66.06
2023-03-31T07:14:42.014Z,66.23
2023-03-31T07:15:41.961Z,64.94
2023-03-31T07:16:42.073Z,68.64
2023-03-31T07:17:42.128Z,65.26
2023-03-31T07:18:41.973Z,66.39
2023-03-31T07:19:41.979Z,73.80
2023-03-31T07:20:41.983Z,66.71
2023-03-31T07:21:41.989Z,71.22
2023-03-31T07:22:41.969Z,68.48
2023-03-31T07:23:41.929Z,69.45
2023-03-31T07:24:41.901Z,71.70
2023-03-31T07:25:41.900Z,69.45
2023-03-31T07:26:41.941Z,70.74
2023-03-31T07:27:41.883Z,70.25
2023-03-31T07:28:41.827Z,69.45
2023-03-31T07:29:41.818Z,69.29
2023-03-31T07:30:41.819Z,70.25
2023-03-31T07:31:41.829Z,67.51
2023-03-31T07:32:41.794Z,69.93
2023-03-31T07:33:41.769Z,68.00
2023-03-31T07:34:41.776Z,70.09
2023-03-31T07:35:41.812Z,75.09
2023-03-31T07:36:41.794Z,72.51
2023-03-31T07:37:41.706Z,67.51
2023-03-31T07:38:41.700Z,71.22
2023-03-31T07:39:41.691Z,69.45
2023-03-31T07:40:41.827Z,72.67
2023-03-31T07:41:41.674Z,70.74
2023-03-31T07:42:41.661Z,70.58
2023-03-31T07:43:41.707Z,70.42
2023-03-31T07:44:41.644Z,69.77
2023-03-31T07:45:42.715Z,69.13
2023-03-31T07:46:41.896Z,68.16
2023-03-31T07:47:41.631Z,67.68
2023-03-31T07:48:41.602Z,63.81
2023-03-31T07:49:41.611Z,67.03
2023-03-31T07:50:41.587Z,68.16
2023-03-31T07:51:41.586Z,67.68
2023-03-31T07:52:42.575Z,60.75
2023-03-31T07:53:41.555Z,64.61
2023-03-31T07:54:41.552Z,62.52
2023-03-31T07:55:41.531Z,65.10
2023-03-31T07:56:41.536Z,66.87
2023-03-31T07:57:41.554Z,68.64
2023-03-31T07:58:41.495Z,65.58
2023-03-31T07:59:41.485Z,68.16
2023-03-31T08:00:41.475Z,68.00
2023-03-31T08:01:41.501Z,62.52
2023-03-31T08:02:41.484Z,62.84
2023-03-31T08:03:42.510Z,66.87
2023-03-31T08:04:41.485Z,70.09
2023-03-31T08:05:41.430Z,70.90
2023-03-31T08:06:41.433Z,68.96
2023-03-31T08:07:41.406Z,69.29
2023-03-31T08:08:41.405Z,71.06
2023-03-31T08:09:41.386Z,70.74
2023-03-31T08:10:41.373Z,72.19
2023-03-31T08:11:41.368Z,74.12
2023-03-31T08:12:41.395Z,73.96
2023-03-31T08:13:41.341Z,74.28
2023-03-31T08:14:41.840Z,74.28
2023-03-31T08:15:42.333Z,75.09
2023-03-31T08:16:41.356Z,74.77
2023-03-31T08:17:41.327Z,72.99
2023-03-31T08:18:41.299Z,72.67
2023-03-31T08:19:41.281Z,74.44
2023-03-31T08:20:41.274Z,76.54
2023-03-31T08:21:41.270Z,72.67
2023-03-31T08:22:41.274Z,71.87
2023-03-31T08:23:41.256Z,70.58
2023-03-31T08:24:41.237Z,63.49
2023-03-31T08:25:41.227Z,62.04
2023-03-31T08:26:41.272Z,63.81
2023-03-31T08:27:41.234Z,68.16
2023-03-31T08:28:41.202Z,65.26
2023-03-31T08:29:41.197Z,66.39
2023-03-31T08:30:41.188Z,66.55
2023-03-31T08:31:41.216Z,65.10
2023-03-31T08:35:07.336Z,69.45
2023-03-31T08:36:07.433Z,63.00
2023-03-31T08:37:07.317Z,64.45
2023-03-31T08:38:07.219Z,67.51
2023-03-31T08:39:07.179Z,67.51
2023-03-31T08:40:07.185Z,70.42
2023-03-31T08:41:07.158Z,70.58
2023-03-31T08:42:08.849Z,68.64
2023-03-31T08:43:07.142Z,64.61
2023-03-31T08:44:07.140Z,68.00
2023-03-31T08:47:33.430Z,67.84
2023-03-31T08:48:33.392Z,69.13
2023-03-31T08:49:33.376Z,66.87
2023-03-31T08:50:33.364Z,67.51
2023-03-31T08:51:33.348Z,56.72
2023-03-31T08:52:33.354Z,62.84
2023-03-31T08:53:33.320Z,59.30
2023-03-31T08:54:33.311Z,71.06
2023-03-31T08:55:33.303Z,61.87
2023-03-31T08:56:33.294Z,63.49
2023-03-31T08:57:33.302Z,64.13
2023-03-31T08:58:33.271Z,63.33
2023-03-31T08:59:33.278Z,68.16
2023-03-31T09:00:33.250Z,69.77
2023-03-31T09:01:44.187Z,76.54
2023-03-31T09:02:34.422Z,64.94
2023-03-31T09:03:33.348Z,62.84
2023-03-31T09:04:33.211Z,58.81
2023-03-31T09:05:33.215Z,67.03
2023-03-31T09:06:33.200Z,66.06
2023-03-31T09:07:33.179Z,65.58
2023-03-31T09:08:33.161Z,66.87
2023-03-31T09:09:33.156Z,70.25
2023-03-31T09:10:33.147Z,65.42
2023-03-31T09:11:33.148Z,67.19
2023-03-31T09:12:34.698Z,66.39
2023-03-31T09:13:33.137Z,66.39
2023-03-31T09:14:33.104Z,66.39
2023-03-31T09:15:33.083Z,65.58
2023-03-31T09:16:33.134Z,68.00
2023-03-31T09:17:33.140Z,61.87
2023-03-31T09:18:33.069Z,63.81
2023-03-31T09:19:33.040Z,61.55
2023-03-31T09:20:33.065Z,66.55
2023-03-31T09:21:33.030Z,65.74
2023-03-31T09:22:33.031Z,70.09
2023-03-31T09:23:33.009Z,70.90
2023-03-31T09:24:33.216Z,61.87
2023-03-31T09:25:32.983Z,55.43
2023-03-31T09:26:32.976Z,55.43
2023-03-31T09:27:32.971Z,65.10
2023-03-31T09:28:32.953Z,70.58
2023-03-31T09:29:32.944Z,66.87
2023-03-31T09:30:32.933Z,62.84
2023-03-31T09:31:32.962Z,65.42
2023-03-31T09:32:32.965Z,63.81
2023-03-31T09:33:32.900Z,67.35
2023-03-31T09:34:32.890Z,62.20
2023-03-31T09:35:32.904Z,63.97
2023-03-31T09:36:32.872Z,67.51
2023-03-31T09:37:32.879Z,67.03
2023-03-31T09:38:32.848Z,58.97
2023-03-31T09:39:32.846Z,58.65
2023-03-31T09:40:32.825Z,53.82
2023-03-31T09:41:34.222Z,63.33
2023-03-31T09:42:32.814Z,65.74
2023-03-31T09:43:32.789Z,51.72
2023-03-31T09:44:32.781Z,76.05
2023-03-31T09:45:32.774Z,62.84
2023-03-31T09:46:33.043Z,79.76
2023-03-31T09:49:58.739Z,52.37
2023-03-31T09:50:58.794Z,63.81
2023-03-31T09:51:58.766Z,60.26
2023-03-31T09:59:17.613Z,52.21
2023-03-31T10:00:17.586Z,64.61
2023-03-31T10:01:17.596Z,61.07
2023-03-31T10:02:17.578Z,61.55
2023-03-31T10:03:17.554Z,67.19
2023-03-31T10:04:17.574Z,68.00
2023-03-31T10:05:17.521Z,68.48
2023-03-31T10:06:17.521Z,63.97
2023-03-31T10:07:17.500Z,66.71
2023-03-31T10:08:17.530Z,69.61
2023-03-31T10:09:17.485Z,67.19
2023-03-31T10:10:17.477Z,61.07
2023-03-31T10:11:17.485Z,62.84
2023-03-31T10:12:17.458Z,62.68
2023-03-31T10:13:17.498Z,59.30
2023-03-31T10:14:17.450Z,68.48
2023-03-31T10:15:17.423Z,60.26
2023-03-31T10:16:17.424Z,65.90
2023-03-31T10:17:17.411Z,60.59
2023-03-31T10:18:17.435Z,64.61
2023-03-31T10:19:17.377Z,63.97
2023-03-31T10:20:17.380Z,65.90
2023-03-31T10:21:17.364Z,61.71
2023-03-31T10:22:17.351Z,61.55
2023-03-31T10:23:17.352Z,64.29
2023-03-31T10:24:17.336Z,60.91
2023-03-31T10:25:17.314Z,63.33
2023-03-31T10:26:17.312Z,63.33
2023-03-31T10:27:18.897Z,63.33
2023-03-31T10:28:17.307Z,61.07
2023-03-31T10:29:17.271Z,52.69
2023-03-31T10:30:17.262Z,63.00
2023-03-31T10:31:17.278Z,58.01
2023-03-31T10:32:17.262Z,63.81
2023-03-31T10:33:22.784Z,66.06
2023-03-31T10:34:18.235Z,69.45
2023-03-31T10:35:17.207Z,65.26
2023-03-31T10:36:17.305Z,67.84
2023-03-31T10:37:17.196Z,67.03
2023-03-31T10:38:17.184Z,61.87
2023-03-31T10:39:17.210Z,63.49
2023-03-31T10:40:17.222Z,60.26
2023-03-31T10:41:17.181Z,60.42
2023-03-31T10:42:17.136Z,62.84
2023-03-31T10:43:17.133Z,64.78
2023-03-31T10:44:17.126Z,69.93
2023-03-31T10:45:26.281Z,64.61
2023-03-31T10:46:18.113Z,60.42
2023-03-31T10:47:17.074Z,60.75
2023-03-31T10:48:17.066Z,61.39
2023-03-31T10:49:17.069Z,50.60
2023-03-31T10:50:17.085Z,61.39
2023-03-31T10:51:17.027Z,61.07
2023-03-31T10:52:17.020Z,59.30
2023-03-31T10:53:17.006Z,59.46
2023-03-31T10:54:17.009Z,61.39
2023-03-31T10:55:16.989Z,61.87
2023-03-31T10:56:16.977Z,60.59
2023-03-31T10:57:17.012Z,69.93
2023-03-31T10:58:16.960Z,60.42
2023-03-31T10:59:16.990Z,62.36
2023-03-31T11:00:16.960Z,59.94
2023-03-31T11:01:16.981Z,60.59
2023-03-31T11:02:16.920Z,60.10
2023-03-31T11:03:17.074Z,60.59
2023-03-31T11:04:16.905Z,61.23
2023-03-31T11:05:16.881Z,62.68
2023-03-31T11:06:16.868Z,63.00
2023-03-31T11:07:16.858Z,60.10
2023-03-31T11:08:18.681Z,63.81
2023-03-31T11:09:16.902Z,64.61
2023-03-31T11:10:16.837Z,61.87
2023-03-31T11:11:16.828Z,68.64
2023-03-31T11:12:16.801Z,66.87
2023-03-31T11:13:16.812Z,63.33
2023-03-31T11:14:16.800Z,64.61
2023-03-31T11:15:16.782Z,63.81
2023-03-31T11:16:16.912Z,65.90
2023-03-31T11:17:16.896Z,60.91
2023-03-31T11:18:16.739Z,61.71
2023-03-31T11:19:16.748Z,67.84
2023-03-31T11:20:16.790Z,69.93
2023-03-31T11:21:16.712Z,61.71
2023-03-31T11:22:16.701Z,58.97
2023-03-31T11:23:16.699Z,61.07
2023-03-31T11:24:16.692Z,62.36
2023-03-31T11:25:16.677Z,62.84
2023-03-31T11:26:16.671Z,60.10
2023-03-31T11:27:16.658Z,63.33
2023-03-31T11:28:16.653Z,64.45
2023-03-31T11:29:16.660Z,66.23
2023-03-31T11:30:16.623Z,63.49
2023-03-31T11:31:16.630Z,58.97
2023-03-31T11:32:16.632Z,64.45
2023-03-31T11:33:16.614Z,67.35
2023-03-31T11:34:16.605Z,57.20
2023-03-31T11:35:17.702Z,63.16
2023-03-31T11:36:17.820Z,64.61
2023-03-31T11:37:17.672Z,61.87
2023-03-31T11:38:17.664Z,60.75
2023-03-31T11:39:18.827Z,64.29
2023-03-31T11:40:17.651Z,64.45
2023-03-31T11:41:17.642Z,60.26
2023-03-31T11:42:17.621Z,59.94
2023-03-31T11:43:17.609Z,56.88
2023-03-31T11:44:17.609Z,64.29
2023-03-31T11:45:17.602Z,61.23
2023-03-31T11:46:17.618Z,64.45
2023-03-31T11:47:17.570Z,58.49
2023-03-31T11:48:17.589Z,66.71
2023-03-31T11:49:17.568Z,62.84
2023-03-31T11:50:17.548Z,61.55
2023-03-31T11:51:17.530Z,63.81
2023-03-31T11:52:17.516Z,59.62
2023-03-31T11:53:17.517Z,53.98
2023-03-31T11:54:17.514Z,62.20
2023-03-31T11:55:17.506Z,63.33
2023-03-31T11:56:17.578Z,62.84
2023-03-31T11:57:17.553Z,63.65
2023-03-31T11:58:17.474Z,62.68
2023-03-31T11:59:17.491Z,62.68
2023-03-31T12:00:17.442Z,60.75
2023-03-31T12:01:17.425Z,66.23
2023-03-31T12:02:17.426Z,60.91
2023-03-31T12:03:17.461Z,61.87
2023-03-31T12:04:17.466Z,64.94
2023-03-31T12:05:17.417Z,63.49
2023-03-31T12:06:17.650Z,66.23
2023-03-31T12:07:17.371Z,62.84
2023-03-31T12:08:17.381Z,64.61
2023-03-31T12:09:17.351Z,63.33
2023-03-31T12:10:24.274Z,63.33
2023-03-31T12:11:18.333Z,52.85
2023-03-31T12:12:17.322Z,62.20
2023-03-31T12:13:17.309Z,63.97
2023-03-31T12:14:17.317Z,64.78
2023-03-31T12:15:17.324Z,60.91
2023-03-31T12:16:17.354Z,67.19
2023-03-31T12:17:17.282Z,64.61
2023-03-31T12:18:17.270Z,62.52
2023-03-31T12:19:17.288Z,61.71
2023-03-31T12:20:17.269Z,59.94
2023-03-31T12:21:17.239Z,60.42
2023-03-31T12:22:17.218Z,63.81
2023-03-31T12:23:17.263Z,64.45
2023-03-31T12:24:17.206Z,63.81
2023-03-31T12:25:17.210Z,64.13
2023-03-31T12:26:17.180Z,65.26
2023-03-31T12:27:17.189Z,63.16
2023-03-31T12:28:17.162Z,60.26
2023-03-31T12:29:22.803Z,64.13
2023-03-31T12:30:19.858Z,61.87
2023-03-31T12:31:17.816Z,63.49
2023-03-31T12:32:17.124Z,61.07
2023-03-31T12:33:17.114Z,61.23
2023-03-31T12:34:17.108Z,61.87
2023-03-31T12:35:17.110Z,60.59
2023-03-31T12:36:17.165Z,61.39
2023-03-31T12:37:17.076Z,64.45
2023-03-31T12:38:17.119Z,59.46
2023-03-31T12:39:17.061Z,63.16
2023-03-31T12:40:17.091Z,57.52
2023-03-31T12:41:17.033Z,61.71
2023-03-31T12:42:17.031Z,61.23
2023-03-31T12:43:17.016Z,61.39
2023-03-31T12:44:17.002Z,61.07
2023-03-31T12:45:17.017Z,64.61
2023-03-31T12:46:17.067Z,63.33
2023-03-31T12:47:16.985Z,59.78
2023-03-31T12:48:16.965Z,57.36
2023-03-31T12:49:16.950Z,53.17
2023-03-31T12:50:16.952Z,66.71
2023-03-31T12:51:16.935Z,69.77
2023-03-31T12:52:16.922Z,51.88
2023-03-31T12:53:16.915Z,60.75
2023-03-31T12:54:16.904Z,62.84
2023-03-31T12:55:16.917Z,66.23
2023-03-31T12:56:16.900Z,58.81
2023-03-31T12:57:16.933Z,67.84
2023-03-31T12:58:16.864Z,75.57
2023-03-31T12:59:16.856Z,52.21
2023-03-31T13:00:16.857Z,60.91
2023-03-31T13:01:16.883Z,63.16
2023-03-31T13:02:16.909Z,64.29
2023-03-31T13:03:16.872Z,62.52
2023-03-31T13:04:17.439Z,64.29
2023-03-31T13:05:17.806Z,60.75
2023-03-31T13:06:16.809Z,61.55